Terminal Aerodrome Forecast
Issued by NWS

Home | Current Version | Previous Version | Text Only | Print | Product List | Glossary On
Versions: 1 2 3 4 5 6 7 8 9 10 11 12 13 14 15 16 17 18 19 20 21 22 23 24 25 26 27 28 29 30 31 32 33
000
FTUS41 KOKX 251740
TAFGON
TAF
KGON 251740Z 2518/2618 09015G27KT 1 1/2SM RA BR OVC009
      WS015/11040KT
     FM251900 08010G18KT 2SM RA BR OVC008
     FM252100 05008KT 2SM -RA BR OVC009
     FM252200 03004KT 1SM BR VCSH OVC007
     FM260000 VRB03KT 1SM BR OVC100
     FM260700 34002KT 2SM BR BKN150
     FM261000 33004KT 4SM BR BKN150
     FM261400 32006KT P6SM SCT250=

USA.gov is the U.S. government's official web portal to all federal, state and local government web resources and services.